createdAt,value
2022-09-27T00:00:30.064Z,10.9
2022-09-27T00:01:32.638Z,10.8
2022-09-27T00:02:36.036Z,10.8
2022-09-27T00:03:38.841Z,10.8
2022-09-27T00:04:42.260Z,10.8
2022-09-27T00:05:45.628Z,10.8
2022-09-27T00:06:48.994Z,10.8
2022-09-27T00:07:52.170Z,10.8
2022-09-27T00:08:55.349Z,10.7
2022-09-27T00:09:58.571Z,10.8
2022-09-27T00:11:01.010Z,10.7
2022-09-27T00:12:04.107Z,10.7
2022-09-27T00:13:07.532Z,10.8
2022-09-27T00:14:10.520Z,10.7
2022-09-27T00:15:13.567Z,10.6
2022-09-27T00:16:17.706Z,10.6
2022-09-27T00:17:20.663Z,10.6
2022-09-27T00:18:23.733Z,10.6
2022-09-27T00:19:26.723Z,10.5
2022-09-27T00:20:29.866Z,10.5
2022-09-27T00:21:33.223Z,10.5
2022-09-27T00:22:35.741Z,10.5
2022-09-27T00:23:38.625Z,10.5
2022-09-27T00:24:41.882Z,10.4
2022-09-27T00:25:44.879Z,10.5
2022-09-27T00:26:48.388Z,10.4
2022-09-27T00:27:51.742Z,10.4
2022-09-27T00:28:54.850Z,10.4
2022-09-27T00:29:57.912Z,10.4
2022-09-27T00:31:02.188Z,10.3
2022-09-27T00:32:06.338Z,10.3
2022-09-27T00:33:09.555Z,10.3
2022-09-27T00:34:12.068Z,10.3
2022-09-27T00:35:14.888Z,10.3
2022-09-27T00:36:18.571Z,10.3
2022-09-27T00:37:21.995Z,10.2
2022-09-27T00:38:24.821Z,10.2
2022-09-27T00:39:28.242Z,10.2
2022-09-27T00:40:31.396Z,10.2
2022-09-27T00:41:33.985Z,10.2
2022-09-27T00:42:36.498Z,10.2
2022-09-27T00:43:39.369Z,10.2
2022-09-27T00:44:42.545Z,10.2
2022-09-27T00:45:45.419Z,10.1
2022-09-27T00:46:49.306Z,10.1
2022-09-27T00:47:53.368Z,10.1
2022-09-27T00:48:56.459Z,10.1
2022-09-27T00:49:59.345Z,10.1
2022-09-27T00:51:02.412Z,10.1
2022-09-27T00:52:05.509Z,10.1
2022-09-27T00:53:08.654Z,10
2022-09-27T00:54:11.398Z,10
2022-09-27T00:55:14.353Z,10
2022-09-27T00:56:17.424Z,10
2022-09-27T00:57:20.900Z,10
2022-09-27T00:58:23.575Z,10
2022-09-27T00:59:26.474Z,9.9
2022-09-27T01:00:29.012Z,10
2022-09-27T01:01:32.843Z,10
2022-09-27T01:02:36.901Z,10
2022-09-27T01:03:40.468Z,10
2022-09-27T01:04:43.643Z,10
2022-09-27T01:05:46.170Z,10
2022-09-27T01:06:49.548Z,10
2022-09-27T01:07:52.694Z,9.9
2022-09-27T01:08:56.138Z,9.9
2022-09-27T01:09:59.315Z,9.9
2022-09-27T01:11:02.185Z,9.9
2022-09-27T01:12:05.903Z,9.9
2022-09-27T01:13:09.644Z,10
2022-09-27T01:14:12.706Z,9.9
2022-09-27T01:15:16.162Z,9.9
2022-09-27T01:16:19.900Z,9.9
2022-09-27T01:17:23.134Z,9.9
2022-09-27T01:18:25.977Z,9.9
2022-09-27T01:19:29.828Z,10
2022-09-27T01:20:32.932Z,10
2022-09-27T01:21:36.311Z,10
2022-09-27T01:22:38.273Z,9.9
2022-09-27T01:23:41.059Z,10
2022-09-27T01:24:44.332Z,9.9
2022-09-27T01:25:47.390Z,9.9
2022-09-27T01:26:50.843Z,9.9
2022-09-27T01:27:54.187Z,9.9
2022-09-27T01:28:57.334Z,9.9
2022-09-27T01:30:00.487Z,9.9
2022-09-27T01:31:03.473Z,9.9
2022-09-27T01:32:06.083Z,10
2022-09-27T01:33:09.437Z,9.9
2022-09-27T01:34:12.553Z,9.9
2022-09-27T01:35:16.049Z,9.9
2022-09-27T01:36:19.421Z,9.9
2022-09-27T01:37:22.558Z,10
2022-09-27T01:38:26.000Z,10
2022-09-27T01:39:28.810Z,10
2022-09-27T01:40:32.147Z,9.9
2022-09-27T01:41:35.255Z,10
2022-09-27T01:42:38.132Z,9.9
2022-09-27T01:43:40.999Z,9.9
2022-09-27T01:44:44.616Z,10
2022-09-27T01:45:48.118Z,10
2022-09-27T01:46:51.647Z,9.9
2022-09-27T01:47:54.907Z,9.9
2022-09-27T01:48:57.613Z,9.9
2022-09-27T01:50:00.182Z,10
2022-09-27T01:51:04.303Z,10
2022-09-27T01:52:07.404Z,9.9
2022-09-27T01:53:10.637Z,10
2022-09-27T01:54:13.150Z,9.9
2022-09-27T01:55:16.024Z,10
2022-09-27T01:56:18.914Z,10.1
2022-09-27T01:57:22.124Z,10
2022-09-27T01:58:24.364Z,9.9
2022-09-27T01:59:27.547Z,9.9
2022-09-27T02:00:30.984Z,9.9
2022-09-27T02:01:34.384Z,9.9
2022-09-27T02:02:38.355Z,9.9
2022-09-27T02:03:42.189Z,9.9
2022-09-27T02:04:44.900Z,9.9
2022-09-27T02:05:48.158Z,9.9
2022-09-27T02:06:52.209Z,9.9
2022-09-27T02:07:55.107Z,9.9
2022-09-27T02:08:57.746Z,9.9
2022-09-27T02:10:01.061Z,10
2022-09-27T02:11:03.957Z,10
2022-09-27T02:12:06.571Z,9.9
2022-09-27T02:13:09.443Z,9.9
2022-09-27T02:14:12.515Z,9.9
2022-09-27T02:15:15.107Z,9.8
2022-09-27T02:16:18.624Z,9.9
2022-09-27T02:17:21.946Z,9.9
2022-09-27T02:18:25.048Z,9.9
2022-09-27T02:19:28.514Z,9.9
2022-09-27T02:20:31.110Z,9.9
2022-09-27T02:21:34.049Z,9.8
2022-09-27T02:22:37.838Z,9.9
2022-09-27T02:23:40.649Z,9.9
2022-09-27T02:24:42.803Z,9.9
2022-09-27T02:25:45.984Z,9.9
2022-09-27T02:26:49.345Z,9.9
2022-09-27T02:27:52.426Z,9.9
2022-09-27T02:28:55.851Z,9.9
2022-09-27T02:29:58.730Z,9.9
2022-09-27T02:31:02.236Z,9.9
2022-09-27T02:32:05.544Z,9.8
2022-09-27T02:33:08.974Z,9.8
2022-09-27T02:34:11.411Z,9.9
2022-09-27T02:35:14.247Z,9.9
2022-09-27T02:36:17.317Z,9.9
2022-09-27T02:37:20.803Z,9.9
2022-09-27T02:38:24.631Z,9.9
2022-09-27T02:39:28.116Z,9.9
2022-09-27T02:40:31.593Z,9.9
2022-09-27T02:41:34.538Z,9.9
2022-09-27T02:42:37.323Z,9.8
2022-09-27T02:43:40.270Z,9.8
2022-09-27T02:44:44.048Z,9.8
2022-09-27T02:45:47.700Z,9.8
2022-09-27T02:46:50.479Z,9.9
2022-09-27T02:47:53.908Z,9.8
2022-09-27T02:48:57.072Z,9.8
2022-09-27T02:50:00.416Z,9.8
2022-09-27T02:51:03.561Z,9.8
2022-09-27T02:52:07.081Z,9.9
2022-09-27T02:53:10.608Z,9.9
2022-09-27T02:54:13.890Z,9.9
2022-09-27T02:55:16.917Z,9.9
2022-09-27T02:56:19.436Z,9.8
2022-09-27T02:57:22.326Z,9.8
2022-09-27T02:58:25.691Z,9.8
2022-09-27T02:59:29.403Z,9.8
2022-09-27T03:00:31.924Z,9.9
2022-09-27T03:01:35.281Z,9.8
2022-09-27T03:02:38.643Z,9.8
2022-09-27T03:03:41.903Z,9.8
2022-09-27T03:04:45.089Z,9.8
2022-09-27T03:05:47.241Z,9.8
2022-09-27T03:06:50.614Z,9.8
2022-09-27T03:07:53.008Z,9.8
2022-09-27T03:08:56.118Z,9.8
2022-09-27T03:09:59.897Z,9.8
2022-09-27T03:11:02.817Z,9.8
2022-09-27T03:12:06.233Z,9.8
2022-09-27T03:13:09.605Z,9.8
2022-09-27T03:14:12.037Z,9.9
2022-09-27T03:15:15.467Z,9.9
2022-09-27T03:16:18.553Z,9.8
2022-09-27T03:17:21.630Z,9.8
2022-09-27T03:18:24.510Z,9.8
2022-09-27T03:19:27.847Z,9.9
2022-09-27T03:20:30.564Z,9.9
2022-09-27T03:21:33.898Z,9.8
2022-09-27T03:22:37.062Z,9.8
2022-09-27T03:23:39.952Z,9.8
2022-09-27T03:24:42.866Z,9.8
2022-09-27T03:25:46.706Z,9.8
2022-09-27T03:26:49.530Z,9.8
2022-09-27T03:27:51.762Z,9.8
2022-09-27T03:28:54.831Z,9.8
2022-09-27T03:29:57.622Z,9.9
2022-09-27T03:31:00.648Z,9.8
2022-09-27T03:32:03.191Z,9.7
2022-09-27T03:33:05.621Z,9.8
2022-09-27T03:34:07.949Z,9.9
2022-09-27T03:35:10.829Z,9.9
2022-09-27T03:36:13.699Z,9.8
2022-09-27T03:37:16.489Z,9.9
2022-09-27T03:38:18.698Z,9.8
2022-09-27T03:39:21.858Z,9.9
2022-09-27T03:40:25.705Z,9.8
2022-09-27T03:41:29.588Z,9.8
2022-09-27T03:42:32.482Z,9.8
2022-09-27T03:43:35.277Z,9.8
2022-09-27T03:44:38.700Z,9.8
2022-09-27T03:45:41.520Z,9.8
2022-09-27T03:46:45.018Z,9.8
2022-09-27T03:47:47.960Z,9.9
2022-09-27T03:48:50.986Z,9.8
2022-09-27T03:49:53.693Z,9.8
2022-09-27T03:50:56.217Z,9.8
2022-09-27T03:51:58.933Z,9.8
2022-09-27T03:53:01.723Z,9.8
2022-09-27T03:54:05.144Z,9.8
2022-09-27T03:55:08.285Z,9.8
2022-09-27T03:56:11.776Z,9.8
2022-09-27T03:57:15.606Z,9.9
2022-09-27T03:58:18.594Z,9.9
2022-09-27T03:59:21.584Z,9.9
2022-09-27T04:00:24.019Z,9.8
2022-09-27T04:01:27.911Z,9.7
2022-09-27T04:02:31.408Z,9.8
2022-09-27T04:03:34.724Z,9.7
2022-09-27T04:04:38.077Z,9.8
2022-09-27T04:05:41.359Z,9.8
2022-09-27T04:06:44.628Z,9.8
2022-09-27T04:07:47.862Z,9.8
2022-09-27T04:08:50.872Z,9.8
2022-09-27T04:09:53.963Z,9.8
2022-09-27T04:10:56.429Z,9.8
2022-09-27T04:11:59.545Z,9.8
2022-09-27T04:13:03.648Z,9.8
2022-09-27T04:14:06.817Z,9.9
2022-09-27T04:15:09.418Z,9.8
2022-09-27T04:16:12.218Z,9.8
2022-09-27T04:17:16.017Z,9.8
2022-09-27T04:18:19.183Z,9.9
2022-09-27T04:19:22.877Z,9.8
2022-09-27T04:20:26.030Z,9.7
2022-09-27T04:21:29.093Z,9.7
2022-09-27T04:22:32.244Z,9.8
2022-09-27T04:23:35.040Z,9.9
2022-09-27T04:24:38.300Z,9.9
2022-09-27T04:25:40.864Z,9.9
2022-09-27T04:26:43.720Z,9.9
2022-09-27T04:27:46.951Z,9.8
2022-09-27T04:28:56.245Z,9.8
2022-09-27T04:29:59.915Z,9.8
2022-09-27T04:31:04.589Z,9.8
2022-09-27T04:32:07.075Z,9.8
2022-09-27T04:33:09.771Z,9.8
2022-09-27T04:34:13.123Z,9.8
2022-09-27T04:35:16.071Z,9.8
2022-09-27T04:36:18.513Z,9.8
2022-09-27T04:37:22.235Z,9.8
2022-09-27T04:38:25.406Z,9.8
2022-09-27T04:39:27.999Z,9.8
2022-09-27T04:40:31.445Z,9.8
2022-09-27T04:41:35.293Z,9.9
2022-09-27T04:42:38.007Z,9.9
2022-09-27T04:43:40.848Z,9.9
2022-09-27T04:44:44.644Z,9.8
2022-09-27T04:45:48.490Z,9.9
2022-09-27T04:46:51.753Z,9.9
2022-09-27T04:47:54.261Z,9.9
2022-09-27T04:48:56.871Z,9.9
2022-09-27T04:49:59.866Z,9.9
2022-09-27T04:51:02.666Z,9.9
2022-09-27T04:52:05.738Z,9.8
2022-09-27T04:53:08.915Z,9.9
2022-09-27T04:54:11.472Z,9.8
2022-09-27T04:55:14.347Z,9.8
2022-09-27T04:56:17.515Z,9.9
2022-09-27T04:57:20.042Z,9.8
2022-09-27T04:58:22.560Z,9.9
2022-09-27T04:59:25.751Z,9.8
2022-09-27T05:00:29.553Z,9.9
2022-09-27T05:01:32.963Z,9.8
2022-09-27T05:02:37.739Z,9.8
2022-09-27T05:03:40.953Z,9.8
2022-09-27T05:04:43.946Z,9.9
2022-09-27T05:05:47.448Z,9.8
2022-09-27T05:06:58.761Z,9.9
2022-09-27T05:08:01.903Z,9.8
2022-09-27T05:09:05.520Z,9.9
2022-09-27T05:10:08.967Z,9.9
2022-09-27T05:11:12.133Z,9.9
2022-09-27T05:12:15.209Z,9.9
2022-09-27T05:13:18.677Z,9.9
2022-09-27T05:14:21.314Z,9.9
2022-09-27T05:15:25.201Z,9.8
2022-09-27T05:16:35.358Z,9.9
2022-09-27T05:17:39.081Z,9.8
2022-09-27T05:18:42.234Z,9.8
2022-09-27T05:19:45.087Z,9.8
2022-09-27T05:20:48.085Z,9.8
2022-09-27T05:21:51.247Z,9.9
2022-09-27T05:22:54.764Z,9.9
2022-09-27T05:23:57.198Z,9.9
2022-09-27T05:25:00.277Z,9.8
2022-09-27T05:26:03.230Z,9.9
2022-09-27T05:27:06.313Z,9.8
2022-09-27T05:28:09.174Z,9.9
2022-09-27T05:29:12.531Z,9.9
2022-09-27T05:30:15.723Z,9.9
2022-09-27T05:31:19.612Z,9.9
2022-09-27T05:32:23.515Z,9.9
2022-09-27T05:33:26.129Z,9.9
2022-09-27T05:34:28.726Z,9.9
2022-09-27T05:35:31.951Z,9.8
2022-09-27T05:36:34.827Z,9.9
2022-09-27T05:37:38.363Z,9.9
2022-09-27T05:38:41.861Z,9.9
2022-09-27T05:39:44.385Z,9.9
2022-09-27T05:40:48.474Z,9.9
2022-09-27T05:41:52.121Z,10
2022-09-27T05:42:55.657Z,10
2022-09-27T05:43:58.998Z,9.9
2022-09-27T05:45:01.643Z,10
2022-09-27T05:46:05.021Z,9.9
2022-09-27T05:47:07.998Z,9.9
2022-09-27T05:48:12.101Z,9.9
2022-09-27T05:49:15.266Z,10
2022-09-27T05:50:17.863Z,10.1
2022-09-27T05:51:20.577Z,10.1
2022-09-27T05:52:25.231Z,10.1
2022-09-27T05:53:28.011Z,10
2022-09-27T05:54:30.822Z,10
2022-09-27T05:55:33.908Z,10
2022-09-27T05:56:37.630Z,10
2022-09-27T05:57:40.790Z,10
2022-09-27T05:58:43.655Z,10
2022-09-27T05:59:47.136Z,10
2022-09-27T06:00:50.295Z,10
2022-09-27T06:01:53.166Z,9.9
2022-09-27T06:02:56.608Z,9.9
2022-09-27T06:04:00.655Z,9.9
2022-09-27T06:05:03.363Z,9.9
2022-09-27T06:06:05.797Z,9.9
2022-09-27T06:07:08.465Z,9.9
2022-09-27T06:08:11.810Z,9.9
2022-09-27T06:09:16.046Z,9.9
2022-09-27T06:10:19.823Z,9.9
2022-09-27T06:11:22.427Z,9.9
2022-09-27T06:12:25.600Z,9.9
2022-09-27T06:13:28.978Z,10
2022-09-27T06:14:32.685Z,10
2022-09-27T06:15:35.128Z,10
2022-09-27T06:16:38.975Z,9.9
2022-09-27T06:17:42.193Z,9.9
2022-09-27T06:18:45.326Z,9.9
2022-09-27T06:19:49.393Z,10
2022-09-27T06:20:52.543Z,10
2022-09-27T06:21:55.332Z,10.1
2022-09-27T06:22:58.464Z,10.1
2022-09-27T06:24:01.606Z,10.1
2022-09-27T06:25:04.763Z,10.1
2022-09-27T06:26:07.336Z,10.1
2022-09-27T06:27:10.230Z,10
2022-09-27T06:28:13.101Z,10
2022-09-27T06:29:16.572Z,10.1
2022-09-27T06:30:22.117Z,10
2022-09-27T06:31:25.638Z,10
2022-09-27T06:32:28.814Z,10
2022-09-27T06:33:32.185Z,10
2022-09-27T06:34:35.682Z,10
2022-09-27T06:35:39.557Z,10
2022-09-27T06:36:42.968Z,10
2022-09-27T06:37:47.334Z,10
2022-09-27T06:38:50.035Z,10
2022-09-27T06:39:53.117Z,10.1
2022-09-27T06:40:56.359Z,10.1
2022-09-27T06:41:59.580Z,10.1
2022-09-27T06:43:02.811Z,10.1
2022-09-27T06:44:05.606Z,10.1
2022-09-27T06:45:08.448Z,10.1
2022-09-27T06:46:11.973Z,10.2
2022-09-27T06:47:15.485Z,10.2
2022-09-27T06:48:18.490Z,10.1
2022-09-27T06:49:21.203Z,10.1
2022-09-27T06:50:24.757Z,10.2
2022-09-27T06:51:28.793Z,10.2
2022-09-27T06:52:31.322Z,10.2
2022-09-27T06:53:34.565Z,10.2
2022-09-27T06:54:37.278Z,10.3
2022-09-27T06:55:40.418Z,10.3
2022-09-27T06:56:43.493Z,10.3
2022-09-27T06:57:46.990Z,10.3
2022-09-27T06:58:49.495Z,10.2
2022-09-27T06:59:52.932Z,10.3
2022-09-27T07:00:56.300Z,10.3
2022-09-27T07:01:59.835Z,10.3
2022-09-27T07:03:03.287Z,10.3
2022-09-27T07:04:06.744Z,10.3
2022-09-27T07:05:09.541Z,10.3
2022-09-27T07:06:12.950Z,10.2
2022-09-27T07:07:17.002Z,10.3
2022-09-27T07:08:20.204Z,10.3
2022-09-27T07:09:23.356Z,10.4
2022-09-27T07:10:26.330Z,10.4
2022-09-27T07:11:29.360Z,10.3
2022-09-27T07:12:33.144Z,10.4
2022-09-27T07:13:36.491Z,10.3
2022-09-27T07:14:40.198Z,10.3
2022-09-27T07:15:43.382Z,10.4
2022-09-27T07:16:47.010Z,10.4
2022-09-27T07:17:50.015Z,10.4
2022-09-27T07:18:52.731Z,10.4
2022-09-27T07:19:57.625Z,10.5
2022-09-27T07:21:01.949Z,10.5
2022-09-27T07:22:04.430Z,10.4
2022-09-27T07:23:08.218Z,10.4
2022-09-27T07:24:10.760Z,10.5
2022-09-27T07:25:13.624Z,10.5
2022-09-27T07:26:16.693Z,10.6
2022-09-27T07:27:20.423Z,10.6
2022-09-27T07:28:24.126Z,10.7
2022-09-27T07:29:27.502Z,10.7
2022-09-27T07:30:31.544Z,10.6
2022-09-27T07:31:34.668Z,10.6
2022-09-27T07:32:37.550Z,10.5
2022-09-27T07:33:45.299Z,10.6
2022-09-27T07:34:48.645Z,10.5
2022-09-27T07:35:51.732Z,10.5
2022-09-27T07:36:54.554Z,10.6
2022-09-27T07:37:58.090Z,10.6
2022-09-27T07:39:01.591Z,10.6
2022-09-27T07:40:04.783Z,10.7
2022-09-27T07:41:07.656Z,10.8
2022-09-27T07:42:11.104Z,10.8
2022-09-27T07:43:13.972Z,10.8
2022-09-27T07:44:17.051Z,10.8
2022-09-27T07:45:20.288Z,10.8
2022-09-27T07:46:23.492Z,10.8
2022-09-27T07:47:26.660Z,10.8
2022-09-27T07:48:29.800Z,10.8
2022-09-27T07:49:33.232Z,10.9
2022-09-27T07:50:36.602Z,10.9
2022-09-27T07:51:39.606Z,10.9
2022-09-27T07:52:42.901Z,10.8
2022-09-27T07:53:46.093Z,10.7
2022-09-27T07:54:49.908Z,10.8
2022-09-27T07:55:53.367Z,10.7
2022-09-27T07:56:56.441Z,10.8
2022-09-27T07:57:59.231Z,10.8
2022-09-27T07:59:01.843Z,10.7
2022-09-27T08:00:05.233Z,10.8
2022-09-27T08:01:08.549Z,10.8
2022-09-27T08:02:11.712Z,10.9
2022-09-27T08:03:15.454Z,10.9
2022-09-27T08:04:18.356Z,10.8
2022-09-27T08:05:21.494Z,10.8
2022-09-27T08:06:24.477Z,10.8
2022-09-27T08:07:27.276Z,10.8
2022-09-27T08:08:30.735Z,10.7
2022-09-27T08:09:33.840Z,10.8
2022-09-27T08:10:37.669Z,10.8
2022-09-27T08:11:40.465Z,10.8
2022-09-27T08:12:42.491Z,10.9
2022-09-27T08:13:45.644Z,10.8
2022-09-27T08:14:50.088Z,10.9
2022-09-27T08:15:53.350Z,10.9
2022-09-27T08:16:56.773Z,11
2022-09-27T08:17:59.573Z,10.9
2022-09-27T08:19:02.716Z,10.9
2022-09-27T08:20:05.875Z,10.9
2022-09-27T08:21:08.938Z,11
2022-09-27T08:22:11.898Z,11.1
2022-09-27T08:23:14.361Z,11.3
2022-09-27T08:24:17.520Z,11.2
2022-09-27T08:25:21.395Z,11.3
2022-09-27T08:26:25.169Z,11.3
2022-09-27T08:27:29.005Z,11.4
2022-09-27T08:28:31.805Z,11.4
2022-09-27T08:29:34.984Z,11.4
2022-09-27T08:30:37.417Z,11.4
2022-09-27T08:31:41.257Z,11.4
2022-09-27T08:32:44.444Z,11.3
2022-09-27T08:33:47.605Z,11.3
2022-09-27T08:34:50.115Z,11.4
2022-09-27T08:35:53.094Z,11.3
2022-09-27T08:36:56.891Z,11.3
2022-09-27T08:38:00.398Z,11.2
2022-09-27T08:39:03.514Z,11.1
2022-09-27T08:40:07.313Z,11.2
2022-09-27T08:41:11.367Z,11.1
2022-09-27T08:42:15.589Z,11.1
2022-09-27T08:43:18.396Z,11.1
2022-09-27T08:44:21.463Z,11.1
2022-09-27T08:45:24.214Z,11.1
2022-09-27T08:46:27.764Z,11.1
2022-09-27T08:47:31.418Z,11.2
2022-09-27T08:48:34.327Z,11.2
2022-09-27T08:49:38.324Z,11.1
2022-09-27T08:50:41.771Z,11.3
2022-09-27T08:51:44.925Z,11.3
2022-09-27T08:52:47.100Z,11.2
2022-09-27T08:53:50.518Z,11.3
2022-09-27T08:54:54.048Z,11.3
2022-09-27T08:55:57.476Z,11.4
2022-09-27T08:57:00.347Z,11.4
2022-09-27T08:58:04.737Z,11.5
2022-09-27T08:59:07.944Z,11.5
2022-09-27T09:00:11.294Z,11.4
2022-09-27T09:01:14.769Z,11.4
2022-09-27T09:02:18.829Z,11.4
2022-09-27T09:03:22.452Z,11.4
2022-09-27T09:04:25.271Z,11.4
2022-09-27T09:05:28.630Z,11.4
2022-09-27T09:06:31.855Z,11.4
2022-09-27T09:07:34.639Z,11.3
2022-09-27T09:08:51.913Z,11.3
2022-09-27T09:09:55.181Z,11.4
2022-09-27T09:10:58.195Z,11.4
2022-09-27T09:12:00.873Z,11.3
2022-09-27T09:13:04.626Z,11.3
2022-09-27T09:14:16.238Z,11.4
2022-09-27T09:15:20.449Z,11.4
2022-09-27T09:16:23.754Z,11.5
2022-09-27T09:17:27.201Z,11.5
2022-09-27T09:18:30.061Z,11.4
2022-09-27T09:19:33.695Z,11.4
2022-09-27T09:20:37.481Z,11.5
2022-09-27T09:21:40.833Z,11.4
2022-09-27T09:22:44.554Z,11.3
2022-09-27T09:23:47.063Z,11.3
2022-09-27T09:24:50.390Z,11.2
2022-09-27T09:25:53.283Z,11.3
2022-09-27T09:26:59.330Z,11.2
2022-09-27T09:28:03.804Z,11.4
2022-09-27T09:29:06.478Z,11.5
2022-09-27T09:30:10.580Z,11.6
2022-09-27T09:31:14.030Z,11.6
2022-09-27T09:32:16.621Z,11.7
2022-09-27T09:33:19.971Z,11.8
2022-09-27T09:34:23.236Z,11.9
2022-09-27T09:35:26.117Z,11.8
2022-09-27T09:36:29.850Z,11.9
2022-09-27T09:37:32.732Z,12
2022-09-27T09:38:35.816Z,12.1
2022-09-27T09:39:39.155Z,12.2
2022-09-27T09:40:42.341Z,12.2
2022-09-27T09:41:45.266Z,12.2
2022-09-27T09:42:47.808Z,12.2
2022-09-27T09:43:50.692Z,12.2
2022-09-27T09:44:54.295Z,12.1
2022-09-27T09:45:58.499Z,12
2022-09-27T09:47:02.025Z,12.2
2022-09-27T09:48:05.071Z,12.3
2022-09-27T09:49:08.806Z,12.5
2022-09-27T09:50:11.891Z,12.5
2022-09-27T09:51:15.397Z,12.5
2022-09-27T09:52:19.092Z,12.2
2022-09-27T09:53:21.678Z,12.5
2022-09-27T09:54:24.466Z,12.6
2022-09-27T09:55:27.654Z,12.7
2022-09-27T09:56:31.097Z,12.4
2022-09-27T09:57:34.834Z,12.4
2022-09-27T09:58:37.742Z,12.7
2022-09-27T09:59:40.649Z,12.9
2022-09-27T10:00:43.786Z,13.4
2022-09-27T10:01:48.162Z,13.8
2022-09-27T10:02:51.369Z,13.9
2022-09-27T10:03:55.426Z,13.4
2022-09-27T10:04:58.581Z,13.2
2022-09-27T10:06:05.039Z,12.9
2022-09-27T10:07:07.625Z,12.9
2022-09-27T10:08:10.417Z,12.9
2022-09-27T10:09:13.010Z,12.8
2022-09-27T10:10:16.458Z,12.6
2022-09-27T10:11:19.800Z,12.4
2022-09-27T10:12:23.156Z,12.4
2022-09-27T10:13:26.027Z,12.5
2022-09-27T10:14:29.850Z,12.6
2022-09-27T10:15:32.564Z,12.6
2022-09-27T10:16:35.679Z,12.6
2022-09-27T10:17:39.844Z,12.5
2022-09-27T10:18:51.427Z,12.7
2022-09-27T10:19:54.160Z,12.6
2022-09-27T10:20:57.503Z,12.8
2022-09-27T10:22:00.294Z,12.7
2022-09-27T10:23:03.389Z,12.8
2022-09-27T10:24:06.746Z,12.9
2022-09-27T10:25:09.970Z,12.9
2022-09-27T10:26:12.687Z,12.9
2022-09-27T10:27:16.113Z,12.9
2022-09-27T10:28:19.267Z,12.9
2022-09-27T10:29:22.722Z,13
2022-09-27T10:30:25.168Z,13.1
2022-09-27T10:31:28.574Z,13.4
2022-09-27T10:32:31.491Z,13.3
2022-09-27T10:33:35.245Z,12.9
2022-09-27T10:34:38.147Z,13.1
2022-09-27T10:35:41.316Z,13.4
2022-09-27T10:36:44.043Z,13.3
2022-09-27T10:37:46.556Z,13.4
2022-09-27T10:38:49.345Z,13.7
2022-09-27T10:39:52.141Z,13.9
2022-09-27T10:40:55.648Z,13.9
2022-09-27T10:41:59.268Z,13.9
2022-09-27T10:43:02.058Z,13.6
2022-09-27T10:44:05.775Z,13.6
2022-09-27T10:45:08.944Z,13.8
2022-09-27T10:46:12.239Z,13.9
2022-09-27T10:47:15.960Z,13.4
2022-09-27T10:48:19.469Z,13.6
2022-09-27T10:49:23.292Z,13.3
2022-09-27T10:50:59.958Z,13.3
2022-09-27T10:52:04.001Z,13.4
2022-09-27T10:53:06.584Z,13.3
2022-09-27T10:54:10.173Z,13.2
2022-09-27T10:55:13.329Z,13
2022-09-27T10:56:16.867Z,13
2022-09-27T10:57:20.576Z,13.1
2022-09-27T10:58:23.672Z,12.9
2022-09-27T10:59:27.117Z,12.9
2022-09-27T11:00:30.554Z,12.9
2022-09-27T11:01:33.568Z,13.1
2022-09-27T11:02:36.489Z,13.1
2022-09-27T11:03:40.031Z,13.3
2022-09-27T11:04:44.569Z,13.6
2022-09-27T11:05:48.032Z,13.8
2022-09-27T11:06:50.653Z,13.9
2022-09-27T11:07:53.420Z,13.7
2022-09-27T11:08:56.501Z,13.7
2022-09-27T11:10:00.151Z,13.8
2022-09-27T11:11:03.320Z,13.6
2022-09-27T11:12:06.811Z,13.6
2022-09-27T11:13:10.546Z,13.6
2022-09-27T11:14:13.420Z,13.5
2022-09-27T11:15:16.352Z,13.2
2022-09-27T11:16:19.872Z,13.1
2022-09-27T11:17:22.945Z,12.7
2022-09-27T11:18:26.665Z,12.8
2022-09-27T11:19:30.333Z,12.7
2022-09-27T11:20:34.203Z,12
2022-09-27T11:21:37.543Z,11.9
2022-09-27T11:22:40.898Z,12
2022-09-27T11:23:44.348Z,12
2022-09-27T11:24:47.513Z,12.1
2022-09-27T11:25:50.649Z,12
2022-09-27T11:26:53.242Z,11.9
2022-09-27T11:27:56.693Z,11.9
2022-09-27T11:29:00.161Z,12.2
2022-09-27T11:30:03.035Z,12.1
2022-09-27T11:31:06.112Z,12.3
2022-09-27T11:32:09.036Z,12.5
2022-09-27T11:33:12.223Z,12.6
2022-09-27T11:34:15.313Z,12.6
2022-09-27T11:35:18.905Z,12.6
2022-09-27T11:36:22.402Z,12.8
2022-09-27T11:37:25.118Z,12.7
2022-09-27T11:39:02.435Z,12.9
2022-09-27T11:40:06.508Z,12.9
2022-09-27T11:41:10.292Z,12.4
2022-09-27T11:42:12.994Z,12.6
2022-09-27T11:43:16.143Z,12.4
2022-09-27T11:44:19.019Z,12.5
2022-09-27T11:46:33.296Z,12.6
2022-09-27T11:48:01.078Z,13
2022-09-27T11:49:04.641Z,12.6
2022-09-27T11:50:07.156Z,12.7
2022-09-27T11:51:10.576Z,12.7
2022-09-27T11:52:14.671Z,12.7
2022-09-27T11:53:18.115Z,12.7
2022-09-27T11:54:21.201Z,12.7
2022-09-27T11:55:24.267Z,12.5
2022-09-27T11:56:27.795Z,12.4
2022-09-27T11:57:31.250Z,12.3
2022-09-27T11:58:33.854Z,11.8
2022-09-27T11:59:36.467Z,11.9
2022-09-27T12:00:39.915Z,12.1
2022-09-27T12:01:43.367Z,12
2022-09-27T12:02:47.854Z,12.2
2022-09-27T12:03:51.221Z,12.1
2022-09-27T12:04:54.313Z,11.8
2022-09-27T12:06:08.296Z,12.1
2022-09-27T12:07:11.755Z,12.2
2022-09-27T12:08:15.814Z,12.2
2022-09-27T12:09:19.180Z,12.1
2022-09-27T12:10:22.912Z,12.3
2022-09-27T12:11:26.330Z,12.3
2022-09-27T12:12:29.436Z,12.4
2022-09-27T12:13:32.799Z,12.4
2022-09-27T12:14:35.685Z,12.3
2022-09-27T12:15:39.089Z,12
2022-09-27T12:16:41.972Z,12
2022-09-27T12:17:45.419Z,12
2022-09-27T12:18:53.012Z,12
2022-09-27T12:19:55.835Z,11.7
2022-09-27T12:20:59.120Z,12
2022-09-27T12:22:01.274Z,11.9
2022-09-27T12:23:04.630Z,11.6
2022-09-27T12:24:08.706Z,11.8
2022-09-27T12:25:11.875Z,11.9
2022-09-27T12:26:14.695Z,11.9
2022-09-27T12:27:18.146Z,11.9
2022-09-27T12:28:29.604Z,11.9
2022-09-27T12:29:32.686Z,11.9
2022-09-27T12:30:36.056Z,11.8
2022-09-27T12:31:39.860Z,11.8
2022-09-27T12:32:43.605Z,11.9
2022-09-27T12:33:47.026Z,11.9
2022-09-27T12:34:49.740Z,11.9
2022-09-27T12:35:52.560Z,11.8
2022-09-27T12:36:55.747Z,11.7
2022-09-27T12:37:59.480Z,11.9
2022-09-27T12:39:02.604Z,11.9
2022-09-27T12:40:06.805Z,12
2022-09-27T12:41:10.534Z,11.9
2022-09-27T12:42:13.355Z,11.8
2022-09-27T12:43:16.536Z,11.8
2022-09-27T12:44:20.540Z,12
2022-09-27T12:45:24.276Z,11.8
2022-09-27T12:46:27.765Z,11.9
2022-09-27T12:47:30.387Z,12.1
2022-09-27T12:48:33.571Z,12.2
2022-09-27T12:49:36.717Z,12
2022-09-27T12:50:39.334Z,11.9
2022-09-27T12:51:42.428Z,11.9
2022-09-27T12:52:46.175Z,11.8
2022-09-27T12:53:49.192Z,11.9
2022-09-27T12:54:52.229Z,11.9
2022-09-27T12:55:55.905Z,12.1
2022-09-27T12:56:59.610Z,12
2022-09-27T12:58:02.327Z,12.1
2022-09-27T12:59:04.839Z,12
2022-09-27T13:00:07.200Z,12.2
2022-09-27T13:01:10.666Z,12.3
2022-09-27T13:02:14.173Z,12
2022-09-27T13:03:27.533Z,12.3
2022-09-27T13:04:30.747Z,12
2022-09-27T13:05:34.103Z,11.9
2022-09-27T13:06:37.254Z,12.1
2022-09-27T13:07:40.212Z,11.8
2022-09-27T13:08:43.402Z,11.9
2022-09-27T13:09:46.671Z,11.8
2022-09-27T13:10:49.918Z,11.9
2022-09-27T13:11:53.784Z,12
2022-09-27T13:12:57.491Z,11.8
2022-09-27T13:14:00.017Z,11.8
2022-09-27T13:15:03.193Z,11.8
2022-09-27T13:16:06.719Z,11.8
2022-09-27T13:17:09.947Z,11.8
2022-09-27T13:18:12.655Z,11.8
2022-09-27T13:19:15.919Z,11.8
2022-09-27T13:20:19.659Z,12
2022-09-27T13:21:23.084Z,11.8
2022-09-27T13:22:25.958Z,11.9
2022-09-27T13:23:29.418Z,11.9
2022-09-27T13:24:32.255Z,11.9
2022-09-27T13:25:35.686Z,11.9
2022-09-27T13:26:39.205Z,12
2022-09-27T13:27:43.109Z,11.9
2022-09-27T13:28:45.547Z,11.7
2022-09-27T13:29:49.178Z,11.8
2022-09-27T13:30:52.870Z,11.9
2022-09-27T13:31:55.468Z,11.9
2022-09-27T13:32:58.908Z,12
2022-09-27T13:34:01.981Z,12.1
2022-09-27T13:35:04.871Z,11.9
2022-09-27T13:36:07.969Z,12.2
2022-09-27T13:37:10.407Z,12.3
2022-09-27T13:38:13.578Z,12.2
2022-09-27T13:42:17.840Z,12.1
2022-09-27T13:43:21.643Z,12.3
2022-09-27T13:44:24.834Z,12.4
2022-09-27T13:45:27.924Z,12.4
2022-09-27T13:46:31.424Z,12.2
2022-09-27T13:47:34.521Z,12.4
2022-09-27T13:48:37.957Z,12.1
2022-09-27T13:49:41.332Z,11.9
2022-09-27T13:50:44.509Z,11.9
2022-09-27T13:51:47.888Z,12
2022-09-27T13:52:50.835Z,12.1
2022-09-27T13:53:53.975Z,12.1
2022-09-27T13:54:57.054Z,12.1
2022-09-27T13:55:59.669Z,12.2
2022-09-27T13:57:03.109Z,12.1
2022-09-27T13:58:06.193Z,12
2022-09-27T13:59:10.233Z,12.1
2022-09-27T14:00:13.327Z,11.9
2022-09-27T14:01:16.320Z,11.9
2022-09-27T14:02:20.513Z,12.1
2022-09-27T14:03:23.695Z,11.9
2022-09-27T14:04:27.045Z,11.9
2022-09-27T14:05:29.841Z,12
2022-09-27T14:06:32.642Z,12.1
2022-09-27T14:07:36.084Z,12.1
2022-09-27T14:08:39.427Z,12.1
2022-09-27T14:09:42.777Z,12.1
2022-09-27T14:10:45.932Z,12
2022-09-27T14:11:49.274Z,12.1
2022-09-27T14:12:52.167Z,12.2
2022-09-27T14:13:55.207Z,12.1
2022-09-27T14:14:58.829Z,12.1
2022-09-27T14:16:02.588Z,11.8
2022-09-27T14:17:11.602Z,11.9
2022-09-27T14:18:15.330Z,11.9
2022-09-27T14:19:18.461Z,12.1
2022-09-27T14:20:22.177Z,12
2022-09-27T14:21:25.063Z,12
2022-09-27T14:22:28.141Z,11.8
2022-09-27T14:23:31.376Z,11.9
2022-09-27T14:24:34.834Z,12.1